sensor_id;sensor_type;location;lat;lon;timestamp;pressure;altitude;pressure_sealevel;temperature;humidity
25238;BME280;13185;50.872;5.306;2022-10-01T00:00:12;100258.91;;;11.19;100.00
25238;BME280;13185;50.872;5.306;2022-10-01T00:02:38;100254.75;;;11.15;100.00
25238;BME280;13185;50.872;5.306;2022-10-01T00:05:07;100244.63;;;11.19;100.00
25238;BME280;13185;50.872;5.306;2022-10-01T00:07:39;100233.50;;;11.12;100.00
25238;BME280;13185;50.872;5.306;2022-10-01T00:10:06;100229.09;;;11.11;100.00
25238;BME280;13185;50.872;5.306;2022-10-01T00:12:32;100215.81;;;11.10;100.00
25238;BME280;13185;50.872;5.306;2022-10-01T00:14:58;100215.19;;;11.06;100.00
25238;BME280;13185;50.872;5.306;2022-10-01T00:17:23;100212.63;;;11.05;100.00
25238;BME280;13185;50.872;5.306;2022-10-01T00:19:49;100206.50;;;11.03;100.00
25238;BME280;13185;50.872;5.306;2022-10-01T00:22:14;100204.81;;;11.02;100.00
25238;BME280;13185;50.872;5.306;2022-10-01T00:24:40;100198.59;;;11.01;100.00
25238;BME280;13185;50.872;5.306;2022-10-01T00:27:05;100188.09;;;10.98;100.00
25238;BME280;13185;50.872;5.306;2022-10-01T00:29:31;100167.81;;;10.94;100.00
25238;BME280;13185;50.872;5.306;2022-10-01T00:31:56;100168.06;;;10.91;100.00
25238;BME280;13185;50.872;5.306;2022-10-01T00:34:22;100161.84;;;10.90;100.00
25238;BME280;13185;50.872;5.306;2022-10-01T00:36:48;100156.84;;;10.86;100.00
25238;BME280;13185;50.872;5.306;2022-10-01T00:39:13;100127.47;;;10.84;100.00
25238;BME280;13185;50.872;5.306;2022-10-01T00:41:42;100141.72;;;10.85;100.00
25238;BME280;13185;50.872;5.306;2022-10-01T00:44:30;100128.53;;;10.82;100.00
25238;BME280;13185;50.872;5.306;2022-10-01T00:47:08;100134.88;;;10.81;100.00
25238;BME280;13185;50.872;5.306;2022-10-01T00:49:38;100127.81;;;10.80;100.00
25238;BME280;13185;50.872;5.306;2022-10-01T00:52:08;100087.94;;;10.75;100.00
25238;BME280;13185;50.872;5.306;2022-10-01T00:55:04;100070.16;;;10.74;100.00
25238;BME280;13185;50.872;5.306;2022-10-01T00:57:27;100088.06;;;10.74;100.00
25238;BME280;13185;50.872;5.306;2022-10-01T00:59:54;100096.00;;;10.75;100.00
25238;BME280;13185;50.872;5.306;2022-10-01T01:02:21;100106.47;;;10.78;100.00
25238;BME280;13185;50.872;5.306;2022-10-01T01:04:46;100080.50;;;10.79;100.00
25238;BME280;13185;50.872;5.306;2022-10-01T01:07:12;100092.34;;;10.76;100.00
25238;BME280;13185;50.872;5.306;2022-10-01T01:09:45;100082.59;;;10.75;100.00
25238;BME280;13185;50.872;5.306;2022-10-01T01:12:36;100053.94;;;10.76;100.00
25238;BME280;13185;50.872;5.306;2022-10-01T01:15:08;100057.34;;;10.78;100.00
25238;BME280;13185;50.872;5.306;2022-10-01T01:22:36;100018.94;;;10.77;100.00
25238;BME280;13185;50.872;5.306;2022-10-01T01:25:18;100023.44;;;10.77;100.00
25238;BME280;13185;50.872;5.306;2022-10-01T01:28:10;100017.84;;;10.80;100.00
25238;BME280;13185;50.872;5.306;2022-10-01T01:30:38;100035.75;;;10.79;100.00
25238;BME280;13185;50.872;5.306;2022-10-01T01:33:12;100051.97;;;10.78;100.00
25238;BME280;13185;50.872;5.306;2022-10-01T01:35:52;100053.69;;;10.79;100.00
25238;BME280;13185;50.872;5.306;2022-10-01T01:38:22;100048.06;;;10.82;100.00
25238;BME280;13185;50.872;5.306;2022-10-01T01:40:53;100041.84;;;10.81;100.00
25238;BME280;13185;50.872;5.306;2022-10-01T01:43:23;100035.75;;;10.79;100.00
25238;BME280;13185;50.872;5.306;2022-10-01T01:45:52;100029.53;;;10.79;100.00
25238;BME280;13185;50.872;5.306;2022-10-01T01:48:23;100014.69;;;10.75;100.00
25238;BME280;13185;50.872;5.306;2022-10-01T01:50:56;100005.78;;;10.74;100.00
25238;BME280;13185;50.872;5.306;2022-10-01T01:53:24;99994.44;;;10.70;100.00
25238;BME280;13185;50.872;5.306;2022-10-01T01:55:51;99981.88;;;10.71;100.00
25238;BME280;13185;50.872;5.306;2022-10-01T01:58:18;99989.06;;;10.70;100.00
25238;BME280;13185;50.872;5.306;2022-10-01T02:00:46;99990.88;;;10.70;100.00
25238;BME280;13185;50.872;5.306;2022-10-01T02:03:20;99986.25;;;10.72;100.00
25238;BME280;13185;50.872;5.306;2022-10-01T02:06:07;99990.75;;;10.72;100.00
25238;BME280;13185;50.872;5.306;2022-10-01T02:08:46;99986.16;;;10.74;100.00
25238;BME280;13185;50.872;5.306;2022-10-01T02:11:28;99985.19;;;10.75;100.00
25238;BME280;13185;50.872;5.306;2022-10-01T02:14:25;99992.25;;;10.76;100.00
25238;BME280;13185;50.872;5.306;2022-10-01T02:20:16;99998.34;;;10.78;100.00
25238;BME280;13185;50.872;5.306;2022-10-01T02:22:49;99985.28;;;10.73;100.00
25238;BME280;13185;50.872;5.306;2022-10-01T02:25:17;99990.41;;;10.76;100.00
25238;BME280;13185;50.872;5.306;2022-10-01T02:27:56;99986.75;;;10.77;100.00
25238;BME280;13185;50.872;5.306;2022-10-01T02:30:27;99985.19;;;10.75;100.00
25238;BME280;13185;50.872;5.306;2022-10-01T02:32:54;99996.88;;;10.74;100.00
25238;BME280;13185;50.872;5.306;2022-10-01T02:35:24;100003.19;;;10.73;100.00
25238;BME280;13185;50.872;5.306;2022-10-01T02:37:54;100002.34;;;10.72;100.00
25238;BME280;13185;50.872;5.306;2022-10-01T02:40:23;100011.25;;;10.73;100.00
25238;BME280;13185;50.872;5.306;2022-10-01T02:42:54;100001.16;;;10.76;100.00
25238;BME280;13185;50.872;5.306;2022-10-01T02:45:22;100009.19;;;10.76;100.00
25238;BME280;13185;50.872;5.306;2022-10-01T02:48:01;99979.81;;;10.75;100.00
25238;BME280;13185;50.872;5.306;2022-10-01T02:50:37;99989.69;;;10.74;100.00
25238;BME280;13185;50.872;5.306;2022-10-01T02:53:10;99991.53;;;10.74;100.00
25238;BME280;13185;50.872;5.306;2022-10-01T02:55:39;100006.63;;;10.75;100.00
25238;BME280;13185;50.872;5.306;2022-10-01T02:58:06;100014.69;;;10.75;100.00
25238;BME280;13185;50.872;5.306;2022-10-01T03:00:32;100014.56;;;10.76;100.00
25238;BME280;13185;50.872;5.306;2022-10-01T03:02:57;99978.97;;;10.74;100.00
25238;BME280;13185;50.872;5.306;2022-10-01T03:05:23;99947.84;;;10.72;100.00
25238;BME280;13185;50.872;5.306;2022-10-01T03:07:49;99867.53;;;10.70;100.00
25238;BME280;13185;50.872;5.306;2022-10-01T03:10:15;99912.41;;;10.68;100.00
25238;BME280;13185;50.872;5.306;2022-10-01T03:12:42;99913.38;;;10.67;100.00
25238;BME280;13185;50.872;5.306;2022-10-01T03:15:10;99926.66;;;10.68;100.00
25238;BME280;13185;50.872;5.306;2022-10-01T03:17:36;99920.31;;;10.69;100.00
25238;BME280;13185;50.872;5.306;2022-10-01T03:20:05;99882.06;;;10.67;100.00
25238;BME280;13185;50.872;5.306;2022-10-01T03:22:31;99836.47;;;10.67;100.00
25238;BME280;13185;50.872;5.306;2022-10-01T03:24:58;99820.50;;;10.66;100.00
25238;BME280;13185;50.872;5.306;2022-10-01T03:27:23;99836.59;;;10.66;100.00
25238;BME280;13185;50.872;5.306;2022-10-01T03:29:49;99894.59;;;10.67;100.00
25238;BME280;13185;50.872;5.306;2022-10-01T03:32:15;99899.84;;;10.68;100.00
25238;BME280;13185;50.872;5.306;2022-10-01T03:34:40;99920.19;;;10.71;100.00
25238;BME280;13185;50.872;5.306;2022-10-01T03:37:06;99926.41;;;10.72;100.00
25238;BME280;13185;50.872;5.306;2022-10-01T03:39:32;99920.06;;;10.73;100.00
25238;BME280;13185;50.872;5.306;2022-10-01T03:41:58;99921.78;;;10.74;100.00
25238;BME280;13185;50.872;5.306;2022-10-01T03:44:24;99918.84;;;10.77;100.00
25238;BME280;13185;50.872;5.306;2022-10-01T03:46:49;99904.34;;;10.79;100.00
25238;BME280;13185;50.872;5.306;2022-10-01T03:49:15;99913.97;;;10.82;100.00
25238;BME280;13185;50.872;5.306;2022-10-01T03:51:41;99907.63;;;10.83;100.00
25238;BME280;13185;50.872;5.306;2022-10-01T03:54:07;99909.34;;;10.84;100.00
25238;BME280;13185;50.872;5.306;2022-10-01T03:56:34;99912.75;;;10.86;100.00
25238;BME280;13185;50.872;5.306;2022-10-01T03:59:00;99912.75;;;10.86;100.00
25238;BME280;13185;50.872;5.306;2022-10-01T04:01:25;99900.06;;;10.88;100.00
25238;BME280;13185;50.872;5.306;2022-10-01T04:03:51;99913.47;;;10.88;100.00
25238;BME280;13185;50.872;5.306;2022-10-01T04:06:17;99923.22;;;10.89;100.00
25238;BME280;13185;50.872;5.306;2022-10-01T04:08:43;99917.72;;;10.90;100.00
25238;BME280;13185;50.872;5.306;2022-10-01T04:11:09;99893.59;;;10.90;100.00
25238;BME280;13185;50.872;5.306;2022-10-01T04:13:34;99900.53;;;10.93;100.00
25238;BME280;13185;50.872;5.306;2022-10-01T04:16:04;99913.94;;;10.93;100.00
25238;BME280;13185;50.872;5.306;2022-10-01T04:18:30;99921.63;;;10.97;100.00
25238;BME280;13185;50.872;5.306;2022-10-01T04:20:55;99918.09;;;10.97;100.00
25238;BME280;13185;50.872;5.306;2022-10-01T04:23:22;99915.28;;;10.98;100.00
25238;BME280;13185;50.872;5.306;2022-10-01T04:25:48;99914.19;;;11.01;100.00
25238;BME280;13185;50.872;5.306;2022-10-01T04:28:13;99915.88;;;11.02;100.00
25238;BME280;13185;50.872;5.306;2022-10-01T04:30:41;99930.91;;;11.05;100.00
25238;BME280;13185;50.872;5.306;2022-10-01T04:33:08;99924.28;;;11.09;100.00
25238;BME280;13185;50.872;5.306;2022-10-01T04:35:35;99927.56;;;11.12;100.00
25238;BME280;13185;50.872;5.306;2022-10-01T04:38:04;99931.94;;;11.13;100.00
25238;BME280;13185;50.872;5.306;2022-10-01T04:40:31;99933.56;;;11.16;100.00
25238;BME280;13185;50.872;5.306;2022-10-01T04:42:56;99928.91;;;11.18;100.00
25238;BME280;13185;50.872;5.306;2022-10-01T04:45:22;99936.69;;;11.21;100.00
25238;BME280;13185;50.872;5.306;2022-10-01T04:47:49;99943.78;;;11.22;100.00
25238;BME280;13185;50.872;5.306;2022-10-01T04:50:15;99931.06;;;11.24;100.00
25238;BME280;13185;50.872;5.306;2022-10-01T04:52:44;99940.72;;;11.26;100.00
25238;BME280;13185;50.872;5.306;2022-10-01T04:55:10;99919.25;;;11.26;100.00
25238;BME280;13185;50.872;5.306;2022-10-01T04:57:36;99934.25;;;11.29;100.00
25238;BME280;13185;50.872;5.306;2022-10-01T05:00:04;99935.94;;;11.30;100.00
25238;BME280;13185;50.872;5.306;2022-10-01T05:02:30;99944.00;;;11.30;100.00
25238;BME280;13185;50.872;5.306;2022-10-01T05:04:59;99940.22;;;11.33;100.00
25238;BME280;13185;50.872;5.306;2022-10-01T05:07:25;99940.22;;;11.33;100.00
25238;BME280;13185;50.872;5.306;2022-10-01T05:09:50;99933.84;;;11.34;100.00
25238;BME280;13185;50.872;5.306;2022-10-01T05:12:15;99937.38;;;11.34;100.00
25238;BME280;13185;50.872;5.306;2022-10-01T05:14:41;99945.31;;;11.36;100.00
25238;BME280;13185;50.872;5.306;2022-10-01T05:17:06;99941.69;;;11.37;100.00
25238;BME280;13185;50.872;5.306;2022-10-01T05:19:32;99951.31;;;11.39;100.00
25238;BME280;13185;50.872;5.306;2022-10-01T05:21:58;99946.66;;;11.41;100.00
25238;BME280;13185;50.872;5.306;2022-10-01T05:24:23;99952.75;;;11.43;100.00
25238;BME280;13185;50.872;5.306;2022-10-01T05:26:49;99941.03;;;11.44;100.00
25238;BME280;13185;50.872;5.306;2022-10-01T05:29:14;99952.50;;;11.46;100.00
25238;BME280;13185;50.872;5.306;2022-10-01T05:31:40;99958.72;;;11.47;100.00
25238;BME280;13185;50.872;5.306;2022-10-01T05:34:08;99970.31;;;11.47;100.00
25238;BME280;13185;50.872;5.306;2022-10-01T05:36:34;99976.53;;;11.48;100.00
25238;BME280;13185;50.872;5.306;2022-10-01T05:39:02;99969.34;;;11.48;100.00
25238;BME280;13185;50.872;5.306;2022-10-01T05:41:27;99966.53;;;11.50;100.00
25238;BME280;13185;50.872;5.306;2022-10-01T05:43:53;99980.66;;;11.52;100.00
25238;BME280;13185;50.872;5.306;2022-10-01T05:46:18;99983.22;;;11.53;100.00
25238;BME280;13185;50.872;5.306;2022-10-01T05:48:44;99981.38;;;11.54;100.00
25238;BME280;13185;50.872;5.306;2022-10-01T05:51:10;99983.09;;;11.55;100.00
25238;BME280;13185;50.872;5.306;2022-10-01T05:53:39;99976.63;;;11.57;100.00
25238;BME280;13185;50.872;5.306;2022-10-01T05:56:05;99979.31;;;11.57;100.00
25238;BME280;13185;50.872;5.306;2022-10-01T05:58:31;99980.75;;;11.62;100.00
25238;BME280;13185;50.872;5.306;2022-10-01T06:00:57;99979.78;;;11.63;100.00
25238;BME280;13185;50.872;5.306;2022-10-01T06:03:23;99981.34;;;11.65;100.00
25238;BME280;13185;50.872;5.306;2022-10-01T06:05:48;99986.34;;;11.70;100.00
25238;BME280;13185;50.872;5.306;2022-10-01T06:08:14;99987.06;;;11.72;100.00
25238;BME280;13185;50.872;5.306;2022-10-01T06:10:40;99992.19;;;11.75;100.00
25238;BME280;13185;50.872;5.306;2022-10-01T06:13:06;99985.69;;;11.77;100.00
25238;BME280;13185;50.872;5.306;2022-10-01T06:15:34;99989.16;;;11.79;100.00
25238;BME280;13185;50.872;5.306;2022-10-01T06:18:06;99988.06;;;11.82;100.00
25238;BME280;13185;50.872;5.306;2022-10-01T06:20:32;99998.53;;;11.85;100.00
25238;BME280;13185;50.872;5.306;2022-10-01T06:22:57;99993.03;;;11.87;100.00
25238;BME280;13185;50.872;5.306;2022-10-01T06:25:24;99996.31;;;11.90;100.00
25238;BME280;13185;50.872;5.306;2022-10-01T06:27:53;99992.53;;;11.93;100.00
25238;BME280;13185;50.872;5.306;2022-10-01T06:30:20;99994.09;;;11.95;100.00
25238;BME280;13185;50.872;5.306;2022-10-01T06:32:46;100001.88;;;11.98;100.00
25238;BME280;13185;50.872;5.306;2022-10-01T06:35:11;100007.88;;;12.02;100.00
25238;BME280;13185;50.872;5.306;2022-10-01T06:37:37;100007.59;;;12.05;100.00
25238;BME280;13185;50.872;5.306;2022-10-01T06:40:04;100008.19;;;12.08;100.00
25238;BME280;13185;50.872;5.306;2022-10-01T06:42:30;100007.81;;;12.13;100.00
25238;BME280;13185;50.872;5.306;2022-10-01T06:44:55;100007.69;;;12.14;100.00
25238;BME280;13185;50.872;5.306;2022-10-01T06:47:20;100016.22;;;12.20;100.00
25238;BME280;13185;50.872;5.306;2022-10-01T06:49:46;100024.03;;;12.23;100.00
25238;BME280;13185;50.872;5.306;2022-10-01T06:52:11;100030.69;;;12.28;100.00
25238;BME280;13185;50.872;5.306;2022-10-01T06:54:55;100026.78;;;12.32;100.00
25238;BME280;13185;50.872;5.306;2022-10-01T06:57:21;100023.69;;;12.37;100.00
25238;BME280;13185;50.872;5.306;2022-10-01T06:59:46;100027.69;;;12.42;100.00
25238;BME280;13185;50.872;5.306;2022-10-01T07:02:24;100036.22;;;12.48;100.00
25238;BME280;13185;50.872;5.306;2022-10-01T07:04:55;100031.16;;;12.54;100.00
25238;BME280;13185;50.872;5.306;2022-10-01T07:07:28;100037.13;;;12.58;100.00
25238;BME280;13185;50.872;5.306;2022-10-01T07:09:54;100039.31;;;12.64;100.00
25238;BME280;13185;50.872;5.306;2022-10-01T07:12:19;100039.88;;;12.67;100.00
25238;BME280;13185;50.872;5.306;2022-10-01T07:14:45;100037.06;;;12.69;100.00
25238;BME280;13185;50.872;5.306;2022-10-01T07:17:10;100038.75;;;12.70;100.00
25238;BME280;13185;50.872;5.306;2022-10-01T07:19:35;100036.81;;;12.72;100.00
25238;BME280;13185;50.872;5.306;2022-10-01T07:22:01;100049.13;;;12.75;100.00
25238;BME280;13185;50.872;5.306;2022-10-01T07:24:26;100042.91;;;12.74;100.00
25238;BME280;13185;50.872;5.306;2022-10-01T07:26:52;100053.53;;;12.76;100.00
25238;BME280;13185;50.872;5.306;2022-10-01T07:29:23;100054.25;;;12.78;100.00
25238;BME280;13185;50.872;5.306;2022-10-01T07:31:49;100054.25;;;12.78;100.00
25238;BME280;13185;50.872;5.306;2022-10-01T07:34:15;100060.19;;;12.81;100.00
25238;BME280;13185;50.872;5.306;2022-10-01T07:36:41;100059.09;;;12.84;100.00
25238;BME280;13185;50.872;5.306;2022-10-01T07:39:11;100065.63;;;12.91;100.00
25238;BME280;13185;50.872;5.306;2022-10-01T07:41:36;100062.56;;;12.95;100.00
25238;BME280;13185;50.872;5.306;2022-10-01T07:44:02;100075.59;;;13.00;100.00
25238;BME280;13185;50.872;5.306;2022-10-01T07:46:28;100080.00;;;13.01;100.00
25238;BME280;13185;50.872;5.306;2022-10-01T07:48:54;100079.91;;;13.03;100.00
25238;BME280;13185;50.872;5.306;2022-10-01T07:51:19;100092.38;;;13.04;100.00
25238;BME280;13185;50.872;5.306;2022-10-01T07:53:45;100082.59;;;13.03;100.00
25238;BME280;13185;50.872;5.306;2022-10-01T07:56:10;100080.75;;;13.03;100.00
25238;BME280;13185;50.872;5.306;2022-10-01T07:58:36;100083.28;;;13.05;100.00
25238;BME280;13185;50.872;5.306;2022-10-01T08:01:03;100089.81;;;13.12;100.00
25238;BME280;13185;50.872;5.306;2022-10-01T08:03:28;100092.28;;;13.15;100.00
25238;BME280;13185;50.872;5.306;2022-10-01T08:05:54;100097.13;;;13.21;100.00
25238;BME280;13185;50.872;5.306;2022-10-01T08:08:19;100096.59;;;13.27;100.00
25238;BME280;13185;50.872;5.306;2022-10-01T08:10:45;100103.03;;;13.36;100.00
25238;BME280;13185;50.872;5.306;2022-10-01T08:13:13;100116.78;;;13.42;100.00
25238;BME280;13185;50.872;5.306;2022-10-01T08:15:43;100119.53;;;13.52;100.00
25238;BME280;13185;50.872;5.306;2022-10-01T08:18:10;100122.97;;;13.64;100.00
25238;BME280;13185;50.872;5.306;2022-10-01T08:20:36;100124.41;;;13.68;100.00
25238;BME280;13185;50.872;5.306;2022-10-01T08:23:05;100132.91;;;13.73;100.00
25238;BME280;13185;50.872;5.306;2022-10-01T08:25:31;100137.63;;;13.80;100.00
25238;BME280;13185;50.872;5.306;2022-10-01T08:27:57;100153.97;;;13.89;100.00
25238;BME280;13185;50.872;5.306;2022-10-01T08:30:25;100143.38;;;13.97;100.00
25238;BME280;13185;50.872;5.306;2022-10-01T08:32:54;100146.34;;;14.03;100.00
25238;BME280;13185;50.872;5.306;2022-10-01T08:35:20;100153.75;;;14.11;100.00
25238;BME280;13185;50.872;5.306;2022-10-01T08:37:46;100156.75;;;14.18;100.00
25238;BME280;13185;50.872;5.306;2022-10-01T08:40:11;100163.25;;;14.25;100.00
25238;BME280;13185;50.872;5.306;2022-10-01T08:42:56;100161.03;;;14.30;100.00
25238;BME280;13185;50.872;5.306;2022-10-01T08:45:45;100162.28;;;14.35;100.00
25238;BME280;13185;50.872;5.306;2022-10-01T08:50:56;100180.91;;;14.48;100.00
25238;BME280;13185;50.872;5.306;2022-10-01T08:53:32;100178.66;;;14.53;100.00
25238;BME280;13185;50.872;5.306;2022-10-01T08:56:01;100171.97;;;14.57;100.00
25238;BME280;13185;50.872;5.306;2022-10-01T08:58:40;100189.63;;;14.61;100.00
25238;BME280;13185;50.872;5.306;2022-10-01T09:01:09;100192.88;;;14.65;100.00
25238;BME280;13185;50.872;5.306;2022-10-01T09:03:35;100195.16;;;14.69;100.00
25238;BME280;13185;50.872;5.306;2022-10-01T09:06:11;100207.38;;;14.73;100.00
25238;BME280;13185;50.872;5.306;2022-10-01T09:20:20;100208.91;;;15.24;100.00
25238;BME280;13185;50.872;5.306;2022-10-01T09:23:02;100221.09;;;15.28;100.00
25238;BME280;13185;50.872;5.306;2022-10-01T09:25:30;100217.69;;;15.26;100.00
25238;BME280;13185;50.872;5.306;2022-10-01T09:28:10;100228.81;;;15.23;100.00
25238;BME280;13185;50.872;5.306;2022-10-01T09:30:41;100203.03;;;15.29;100.00
25238;BME280;13185;50.872;5.306;2022-10-01T09:33:16;100219.09;;;15.40;100.00
25238;BME280;13185;50.872;5.306;2022-10-01T09:36:04;100213.81;;;15.48;100.00
25238;BME280;13185;50.872;5.306;2022-10-01T09:38:43;100199.13;;;15.70;100.00
25238;BME280;13185;50.872;5.306;2022-10-01T09:41:10;100211.44;;;15.82;100.00
25238;BME280;13185;50.872;5.306;2022-10-01T09:43:41;100207.69;;;15.93;100.00
25238;BME280;13185;50.872;5.306;2022-10-01T09:46:12;100215.41;;;15.88;100.00
25238;BME280;13185;50.872;5.306;2022-10-01T09:51:45;100214.41;;;15.89;100.00
25238;BME280;13185;50.872;5.306;2022-10-01T09:54:17;100204.72;;;15.96;98.29
25238;BME280;13185;50.872;5.306;2022-10-01T09:57:00;100223.19;;;16.01;98.47
25238;BME280;13185;50.872;5.306;2022-10-01T09:59:49;100225.72;;;16.02;97.42
25238;BME280;13185;50.872;5.306;2022-10-01T10:02:32;100239.28;;;15.93;96.62
25238;BME280;13185;50.872;5.306;2022-10-01T10:05:02;100253.13;;;15.90;94.73
25238;BME280;13185;50.872;5.306;2022-10-01T10:07:28;100228.03;;;15.97;95.75
25238;BME280;13185;50.872;5.306;2022-10-01T10:10:05;100230.78;;;16.15;95.99
25238;BME280;13185;50.872;5.306;2022-10-01T10:12:31;100246.53;;;16.29;93.87
25238;BME280;13185;50.872;5.306;2022-10-01T10:15:06;100232.69;;;16.32;91.53
25238;BME280;13185;50.872;5.306;2022-10-01T10:17:33;100242.63;;;16.41;93.26
25238;BME280;13185;50.872;5.306;2022-10-01T10:20:08;100247.75;;;16.35;89.86
25238;BME280;13185;50.872;5.306;2022-10-01T10:22:35;100257.56;;;16.18;88.57
25238;BME280;13185;50.872;5.306;2022-10-01T10:25:10;100258.88;;;16.04;87.87
25238;BME280;13185;50.872;5.306;2022-10-01T10:27:36;100265.44;;;16.02;88.17
25238;BME280;13185;50.872;5.306;2022-10-01T10:30:22;100276.38;;;16.10;88.78
25238;BME280;13185;50.872;5.306;2022-10-01T10:32:49;100277.56;;;16.25;89.58
25238;BME280;13185;50.872;5.306;2022-10-01T10:35:22;100274.78;;;16.44;90.06
25238;BME280;13185;50.872;5.306;2022-10-01T10:37:53;100278.97;;;16.57;86.94
25238;BME280;13185;50.872;5.306;2022-10-01T10:40:25;100294.09;;;16.59;87.98
25238;BME280;13185;50.872;5.306;2022-10-01T10:42:53;100292.91;;;16.62;86.77
25238;BME280;13185;50.872;5.306;2022-10-01T10:45:35;100298.84;;;16.75;87.07
25238;BME280;13185;50.872;5.306;2022-10-01T10:48:05;100307.47;;;16.88;87.35
25238;BME280;13185;50.872;5.306;2022-10-01T10:50:35;100309.97;;;16.99;87.61
25238;BME280;13185;50.872;5.306;2022-10-01T10:53:41;100305.38;;;17.00;83.80
25238;BME280;13185;50.872;5.306;2022-10-01T10:56:20;100324.84;;;16.86;82.71
25238;BME280;13185;50.872;5.306;2022-10-01T11:01:28;100322.84;;;16.60;79.66
25238;BME280;13185;50.872;5.306;2022-10-01T11:03:56;100337.78;;;16.64;78.88
25238;BME280;13185;50.872;5.306;2022-10-01T11:06:24;100340.97;;;16.60;78.78
25238;BME280;13185;50.872;5.306;2022-10-01T11:08:58;100330.56;;;16.55;78.76
25238;BME280;13185;50.872;5.306;2022-10-01T11:14:45;100345.78;;;16.56;78.64
25238;BME280;13185;50.872;5.306;2022-10-01T11:34:19;100346.94;;;17.09;76.25
25238;BME280;13185;50.872;5.306;2022-10-01T11:39:46;100353.63;;;17.32;73.11
25238;BME280;13185;50.872;5.306;2022-10-01T11:42:19;100352.53;;;17.43;73.48
25238;BME280;13185;50.872;5.306;2022-10-01T11:45:02;100343.63;;;17.33;70.95
25238;BME280;13185;50.872;5.306;2022-10-01T11:47:38;100372.81;;;17.39;72.08
25238;BME280;13185;50.872;5.306;2022-10-01T11:50:13;100349.97;;;17.41;71.58
25238;BME280;13185;50.872;5.306;2022-10-01T11:55:38;100362.81;;;17.39;70.61
25238;BME280;13185;50.872;5.306;2022-10-01T11:58:29;100380.50;;;17.43;71.77
25238;BME280;13185;50.872;5.306;2022-10-01T12:01:29;100365.84;;;17.36;70.80
25238;BME280;13185;50.872;5.306;2022-10-01T12:04:34;100373.44;;;17.33;71.58
25238;BME280;13185;50.872;5.306;2022-10-01T12:07:12;100382.19;;;17.26;71.18
25238;BME280;13185;50.872;5.306;2022-10-01T12:12:48;100379.31;;;17.10;71.50
25238;BME280;13185;50.872;5.306;2022-10-01T12:15:25;100398.72;;;17.06;71.96
25238;BME280;13185;50.872;5.306;2022-10-01T12:18:08;100405.47;;;17.01;70.45
25238;BME280;13185;50.872;5.306;2022-10-01T12:20:46;100400.59;;;17.05;70.58
25238;BME280;13185;50.872;5.306;2022-10-01T12:23:15;100391.53;;;17.14;70.32
25238;BME280;13185;50.872;5.306;2022-10-01T12:28:30;100407.59;;;17.43;71.49
25238;BME280;13185;50.872;5.306;2022-10-01T12:34:06;100401.25;;;17.70;72.86
25238;BME280;13185;50.872;5.306;2022-10-01T12:42:43;100403.09;;;18.05;72.74
25238;BME280;13185;50.872;5.306;2022-10-01T12:50:56;100416.75;;;17.96;69.58
25238;BME280;13185;50.872;5.306;2022-10-01T12:56:33;100429.06;;;17.54;70.30
25238;BME280;13185;50.872;5.306;2022-10-01T12:59:19;100436.41;;;17.44;70.96
25238;BME280;13185;50.872;5.306;2022-10-01T13:10:11;100439.50;;;17.31;70.77
25238;BME280;13185;50.872;5.306;2022-10-01T13:15:30;100439.19;;;17.35;69.46
25238;BME280;13185;50.872;5.306;2022-10-01T13:20:33;100449.56;;;17.57;68.84
25238;BME280;13185;50.872;5.306;2022-10-01T13:25:31;100447.13;;;17.81;69.04
25238;BME280;13185;50.872;5.306;2022-10-01T13:33:29;100463.78;;;18.04;66.97
25238;BME280;13185;50.872;5.306;2022-10-01T13:36:09;100472.53;;;18.16;66.54
25238;BME280;13185;50.872;5.306;2022-10-01T13:41:05;100463.47;;;18.33;66.57
25238;BME280;13185;50.872;5.306;2022-10-01T13:43:33;100484.25;;;18.42;65.97
25238;BME280;13185;50.872;5.306;2022-10-01T13:46:05;100477.88;;;18.52;65.72
25238;BME280;13185;50.872;5.306;2022-10-01T13:48:33;100480.31;;;18.63;65.08
25238;BME280;13185;50.872;5.306;2022-10-01T13:51:10;100493.28;;;18.69;64.52
25238;BME280;13185;50.872;5.306;2022-10-01T13:53:45;100500.31;;;18.80;64.73
25238;BME280;13185;50.872;5.306;2022-10-01T13:56:29;100483.22;;;18.87;64.14
25238;BME280;13185;50.872;5.306;2022-10-01T13:58:55;100498.16;;;18.91;62.96
25238;BME280;13185;50.872;5.306;2022-10-01T14:09:53;100516.84;;;18.94;60.66
25238;BME280;13185;50.872;5.306;2022-10-01T14:12:42;100522.97;;;18.96;59.80
25238;BME280;13185;50.872;5.306;2022-10-01T14:15:42;100518.94;;;19.00;60.37
25238;BME280;13185;50.872;5.306;2022-10-01T14:18:37;100524.09;;;19.12;60.98
25238;BME280;13185;50.872;5.306;2022-10-01T14:23:47;100526.13;;;19.10;59.83
25238;BME280;13185;50.872;5.306;2022-10-01T14:29:22;100539.34;;;19.04;60.53
25238;BME280;13185;50.872;5.306;2022-10-01T14:32:12;100542.38;;;19.01;61.01
25238;BME280;13185;50.872;5.306;2022-10-01T14:37:16;100554.44;;;18.99;59.94
25238;BME280;13185;50.872;5.306;2022-10-01T14:39:43;100554.31;;;19.09;59.78
25238;BME280;13185;50.872;5.306;2022-10-01T14:42:15;100561.56;;;19.00;59.30
25238;BME280;13185;50.872;5.306;2022-10-01T14:44:44;100569.03;;;18.72;56.50
25238;BME280;13185;50.872;5.306;2022-10-01T14:47:15;100571.97;;;18.79;56.79
25238;BME280;13185;50.872;5.306;2022-10-01T14:49:41;100559.28;;;18.87;55.64
25238;BME280;13185;50.872;5.306;2022-10-01T14:52:17;100569.50;;;18.93;55.49
25238;BME280;13185;50.872;5.306;2022-10-01T14:54:44;100580.19;;;18.87;56.43
25238;BME280;13185;50.872;5.306;2022-10-01T14:57:16;100583.13;;;18.75;56.65
25238;BME280;13185;50.872;5.306;2022-10-01T14:59:46;100582.75;;;18.70;57.89